Pagina principale
METAR-TAF:

METAR-TAF

Aeroporti :

Cannes, Francia

latitudine: 43-33N, longitudine: 006-57E, altezza: 3 m

Osservazione

Il bollettino è stato emesso 35 minuti fa, alle 09:00 UTC
Vento 6 kt da sud
Temperature 26°C
Umidità 51%
Pressione 1017 hPa
Visibilità 10 km o più
nessuna nube inferiore a 1500 m e nessun cumulonembo

METAR: LFMD 290900Z AUTO 17006KT CAVOK 26/15 Q1017 NOSIG

Ora: 11:35 (09:35 UTC)

Previsione

Il bollettino è stato emesso 1 ora e 35 minuti fa, alle 08:00 UTC
Previsione valida dal 29 alle 09 UTC al 30 alle 09 UTC
Vento 8 kt da sud/sud-est
Visibilità 10 km o più
nessuna nube inferiore a 1500 m e nessun cumulonembo
Evoluzione graduale
dal 29 alle 20 UTC al 29 alle 22 UTC
Vento 10 kt da nord/nord-ovest
Evoluzione graduale
dal 30 alle 07 UTC al 30 alle 09 UTC
Vento 10 kt da sud/sud-est

TAF: LFMD 290800Z 2909/3009 16008KT CAVOK BECMG 2920/2922 34010KT BECMG 3007/3009 16010KT

Osservazioni e previsioni meteorologiche di più di 4000 aeroporti (messaggi METAR e TAF).

Le stazioni disponibili sono rappresentate dai dischi gialli e rossi sulla carta.

Puntare il mouse per vedere il nome della stazione.

Clicca sopra per visualizzare le osservazioni e previsioni meteorologiche.

Per cambiare la mappa : fare clic sui pulsanti verdi con una croce nera per ingrandire, il pulsante verde con un trattino per diminuire, o sulla freccia verde per le mappe adiacenti.


METAR-TAF: